createdAt,value
2023-01-12T00:01:53.749Z,3.10
2023-01-12T00:04:20.395Z,2.85
2023-01-12T00:06:47.245Z,3.25
2023-01-12T00:09:13.876Z,3.95
2023-01-12T00:11:41.211Z,3.22
2023-01-12T00:14:08.384Z,3.50
2023-01-12T00:16:35.134Z,3.53
2023-01-12T00:19:07.568Z,3.03
2023-01-12T00:21:34.289Z,3.72
2023-01-12T00:24:00.935Z,2.90
2023-01-12T00:26:30.417Z,3.13
2023-01-12T00:28:57.010Z,3.80
2023-01-12T00:31:23.681Z,2.92
2023-01-12T00:33:50.290Z,3.22
2023-01-12T00:36:16.948Z,4.00
2023-01-12T00:38:43.548Z,3.03
2023-01-12T00:41:12.334Z,3.55
2023-01-12T00:43:38.982Z,3.38
2023-01-12T00:46:05.708Z,2.97
2023-01-12T00:48:32.337Z,3.45
2023-01-12T00:51:02.142Z,2.80
2023-01-12T00:56:00.247Z,4.38
2023-01-12T00:58:28.029Z,3.83
2023-01-12T01:00:54.952Z,4.75
2023-01-12T01:03:21.659Z,2.65
2023-01-12T01:05:48.268Z,2.95
2023-01-12T01:08:14.889Z,4.05
2023-01-12T01:10:41.555Z,4.20
2023-01-12T01:13:08.264Z,3.13
2023-01-12T01:15:34.944Z,3.95
2023-01-12T01:18:01.582Z,2.67
2023-01-12T01:20:28.222Z,2.92
2023-01-12T01:22:54.881Z,3.40
2023-01-12T01:25:21.596Z,3.15
2023-01-12T01:27:48.226Z,2.95
2023-01-12T01:30:14.923Z,3.42
2023-01-12T01:32:42.037Z,4.75
2023-01-12T01:35:09.056Z,2.22
2023-01-12T01:37:35.710Z,3.10
2023-01-12T01:40:02.298Z,2.45
2023-01-12T01:42:28.973Z,2.92
2023-01-12T01:44:57.408Z,2.42
2023-01-12T01:47:28.184Z,2.42
2023-01-12T01:49:55.404Z,3.10
2023-01-12T01:52:31.445Z,3.53
2023-01-12T01:55:06.038Z,2.50
2023-01-12T01:57:42.280Z,3.13
2023-01-12T02:00:11.921Z,2.33
2023-01-12T02:02:39.581Z,2.72
2023-01-12T02:05:06.456Z,2.63
2023-01-12T02:07:33.144Z,2.40
2023-01-12T02:09:59.815Z,3.15
2023-01-12T02:12:26.415Z,4.57
2023-01-12T02:14:53.109Z,2.63
2023-01-12T02:17:27.383Z,3.58
2023-01-12T02:20:12.804Z,3.58
2023-01-12T02:22:45.033Z,3.22
2023-01-12T02:25:49.075Z,2.45
2023-01-12T02:29:06.117Z,2.20
2023-01-12T02:31:47.515Z,2.30
2023-01-12T02:34:42.140Z,2.55
2023-01-12T02:37:38.284Z,2.40
2023-01-12T02:40:25.286Z,2.65
2023-01-12T02:42:58.227Z,3.58
2023-01-12T02:45:52.529Z,4.38
2023-01-12T02:48:35.267Z,3.55
2023-01-12T02:51:32.099Z,3.70
2023-01-12T02:54:02.713Z,2.92
2023-01-12T02:56:57.684Z,2.60
2023-01-12T02:59:36.260Z,2.63
2023-01-12T03:02:15.081Z,2.85
2023-01-12T03:04:42.950Z,2.90
2023-01-12T03:07:25.110Z,2.88
2023-01-12T03:12:33.872Z,2.58
2023-01-12T03:15:03.071Z,2.88
2023-01-12T03:18:00.200Z,2.05
2023-01-12T03:20:32.836Z,2.95
2023-01-12T03:23:13.510Z,3.30
2023-01-12T03:25:43.221Z,3.30
2023-01-12T03:28:09.822Z,3.17
2023-01-12T03:30:45.369Z,2.75
2023-01-12T03:33:12.250Z,2.50
2023-01-12T03:36:00.530Z,2.97
2023-01-12T03:38:47.715Z,2.40
2023-01-12T03:41:22.412Z,3.60
2023-01-12T03:43:50.816Z,2.83
2023-01-12T03:46:50.620Z,3.30
2023-01-12T03:49:20.650Z,2.67
2023-01-12T03:51:47.807Z,3.22
2023-01-12T03:54:14.660Z,2.35
2023-01-12T03:56:41.733Z,2.75
2023-01-12T03:59:08.402Z,2.72
2023-01-12T04:01:35.311Z,3.95
2023-01-12T04:04:02.331Z,2.70
2023-01-12T04:06:39.275Z,2.47
2023-01-12T04:09:05.950Z,3.30
2023-01-12T04:11:32.656Z,2.97
2023-01-12T04:13:59.266Z,3.00
2023-01-12T04:16:25.891Z,2.80
2023-01-12T04:18:52.563Z,2.90
2023-01-12T04:21:19.274Z,2.70
2023-01-12T04:23:45.879Z,2.90
2023-01-12T04:26:12.474Z,2.80
2023-01-12T04:28:39.146Z,2.45
2023-01-12T04:31:05.921Z,1.85
2023-01-12T04:33:32.564Z,3.83
2023-01-12T04:35:59.198Z,2.30
2023-01-12T04:38:25.805Z,2.17
2023-01-12T04:40:55.634Z,2.13
2023-01-12T04:45:48.906Z,1.60
2023-01-12T04:48:15.645Z,1.38
2023-01-12T04:50:42.374Z,1.00
2023-01-12T04:53:10.297Z,1.20
2023-01-12T04:55:37.558Z,1.40
2023-01-12T04:58:04.258Z,1.00
2023-01-12T05:00:30.984Z,2.20
2023-01-12T05:03:00.660Z,1.77
2023-01-12T05:05:27.390Z,1.30
2023-01-12T05:07:54.009Z,1.63
2023-01-12T05:10:20.684Z,1.40
2023-01-12T05:12:47.384Z,1.35
2023-01-12T05:15:14.163Z,1.13
2023-01-12T05:17:40.808Z,2.35
2023-01-12T05:20:08.238Z,1.60
2023-01-12T05:22:34.857Z,1.17
2023-01-12T05:25:01.500Z,2.00
2023-01-12T05:27:28.206Z,1.33
2023-01-12T05:29:54.871Z,1.83
2023-01-12T05:32:21.573Z,1.52
2023-01-12T05:34:50.413Z,1.23
2023-01-12T05:37:17.060Z,2.08
2023-01-12T05:39:43.708Z,2.22
2023-01-12T05:42:10.342Z,1.42
2023-01-12T05:44:36.962Z,1.58
2023-01-12T05:47:03.969Z,1.60
2023-01-12T05:49:30.598Z,1.40
2023-01-12T05:51:57.191Z,2.10
2023-01-12T05:54:23.913Z,1.67
2023-01-12T05:56:50.582Z,1.48
2023-01-12T05:59:17.195Z,1.38
2023-01-12T06:01:58.443Z,1.23
2023-01-12T06:04:43.462Z,1.98
2023-01-12T06:07:24.100Z,1.58
2023-01-12T06:09:51.821Z,2.58
2023-01-12T06:12:21.462Z,2.30
2023-01-12T06:15:01.120Z,1.77
2023-01-12T06:17:28.179Z,1.52
2023-01-12T06:20:04.880Z,1.58
2023-01-12T06:22:31.750Z,1.67
2023-01-12T06:24:58.482Z,1.02
2023-01-12T06:27:25.172Z,1.67
2023-01-12T06:29:54.662Z,1.75
2023-01-12T06:32:22.527Z,1.42
2023-01-12T06:35:01.683Z,3.35
2023-01-12T06:37:36.386Z,0.77
2023-01-12T06:40:03.340Z,1.45
2023-01-12T06:42:30.014Z,1.42
2023-01-12T06:44:57.222Z,0.93
2023-01-12T06:47:23.980Z,0.95
2023-01-12T06:49:53.793Z,1.33
2023-01-12T06:54:47.680Z,1.05
2023-01-12T06:57:14.627Z,1.05
2023-01-12T06:59:41.236Z,0.98
2023-01-12T07:02:11.925Z,1.60
2023-01-12T07:04:39.297Z,1.30
2023-01-12T07:07:06.678Z,1.23
2023-01-12T07:09:33.350Z,1.45
2023-01-12T07:11:59.970Z,2.22
2023-01-12T07:14:26.558Z,1.20
2023-01-12T07:16:56.334Z,0.88
2023-01-12T07:21:49.489Z,1.05
2023-01-12T07:24:16.484Z,1.00
2023-01-12T07:26:43.145Z,1.40
2023-01-12T07:29:09.791Z,1.02
2023-01-12T07:31:36.504Z,0.80
2023-01-12T07:34:03.140Z,1.13
2023-01-12T07:36:29.798Z,1.40
2023-01-12T07:38:56.476Z,1.42
2023-01-12T07:41:23.144Z,1.13
2023-01-12T07:43:49.769Z,1.25
2023-01-12T07:46:16.388Z,0.98
2023-01-12T07:48:43.014Z,1.15
2023-01-12T07:51:09.653Z,1.08
2023-01-12T07:53:36.292Z,1.30
2023-01-12T07:56:02.859Z,1.20
2023-01-12T07:58:29.483Z,1.50
2023-01-12T08:00:59.060Z,1.80
2023-01-12T08:03:25.832Z,1.45
2023-01-12T08:05:52.681Z,1.45
2023-01-12T08:08:20.416Z,1.60
2023-01-12T08:10:47.066Z,1.30
2023-01-12T08:13:13.681Z,1.17
2023-01-12T08:15:45.125Z,1.45
2023-01-12T08:18:22.162Z,1.55
2023-01-12T08:20:49.004Z,1.42
2023-01-12T08:23:41.776Z,1.60
2023-01-12T08:26:43.403Z,1.85
2023-01-12T08:29:18.084Z,1.20
2023-01-12T08:31:44.695Z,1.50
2023-01-12T08:34:11.314Z,1.85
2023-01-12T08:36:37.929Z,1.70
2023-01-12T08:39:04.593Z,1.52
2023-01-12T08:41:31.513Z,2.00
2023-01-12T08:44:01.237Z,1.98
2023-01-12T08:49:09.306Z,1.05
2023-01-12T08:51:36.101Z,1.33
2023-01-12T08:54:02.832Z,1.27
2023-01-12T08:56:29.417Z,1.45
2023-01-12T08:58:56.004Z,1.55
2023-01-12T09:01:22.757Z,1.00
2023-01-12T09:03:49.517Z,1.30
2023-01-12T09:06:17.333Z,1.25
2023-01-12T09:08:44.085Z,1.25
2023-01-12T09:11:13.924Z,1.35
2023-01-12T09:13:40.728Z,1.67
2023-01-12T09:16:13.429Z,1.10
2023-01-12T09:18:40.839Z,1.60
2023-01-12T09:21:09.202Z,1.23
2023-01-12T09:23:36.124Z,1.10
2023-01-12T09:26:13.399Z,1.90
2023-01-12T09:28:40.095Z,1.67
2023-01-12T09:31:18.879Z,1.13
2023-01-12T09:33:46.113Z,0.98
2023-01-12T09:36:14.193Z,1.60
2023-01-12T09:38:41.914Z,1.30
2023-01-12T09:41:29.429Z,1.45
2023-01-12T09:43:56.048Z,0.90
2023-01-12T09:46:38.254Z,1.00
2023-01-12T09:49:04.939Z,1.20
2023-01-12T09:51:37.823Z,1.15
2023-01-12T09:54:04.823Z,1.00
2023-01-12T09:56:35.028Z,1.27
2023-01-12T09:59:13.180Z,1.02
2023-01-12T10:01:39.956Z,1.13
2023-01-12T10:04:06.711Z,0.82
2023-01-12T10:06:33.866Z,0.88
2023-01-12T10:09:01.988Z,0.93
2023-01-12T10:11:43.867Z,0.50
2023-01-12T10:14:29.393Z,0.95
2023-01-12T10:16:58.811Z,1.13
2023-01-12T10:19:36.153Z,0.70
2023-01-12T10:22:18.066Z,0.80
2023-01-12T10:24:44.672Z,0.75
2023-01-12T10:27:12.981Z,0.70
2023-01-12T10:29:39.579Z,0.43
2023-01-12T10:32:08.278Z,0.63
2023-01-12T10:34:51.143Z,0.95
2023-01-12T10:37:17.834Z,1.40
2023-01-12T10:39:44.441Z,1.10
2023-01-12T10:42:21.042Z,0.90
2023-01-12T10:44:47.662Z,1.40
2023-01-12T10:47:15.223Z,1.02
2023-01-12T10:49:41.815Z,1.23
2023-01-12T10:52:26.564Z,1.30
2023-01-12T10:54:56.156Z,2.28
2023-01-12T10:57:23.845Z,1.48
2023-01-12T11:00:14.244Z,1.77
2023-01-12T11:02:44.137Z,1.20
2023-01-12T11:05:36.939Z,1.20
2023-01-12T11:08:09.228Z,1.10
2023-01-12T11:10:35.810Z,1.08
2023-01-12T11:13:03.973Z,1.20
2023-01-12T11:15:30.970Z,1.40
2023-01-12T11:18:06.013Z,1.00
2023-01-12T11:20:50.242Z,1.25
2023-01-12T11:23:23.802Z,1.40
2023-01-12T11:25:51.226Z,1.48
2023-01-12T11:28:23.348Z,1.20
2023-01-12T11:31:05.491Z,1.52
2023-01-12T11:33:42.647Z,1.52
2023-01-12T11:36:11.608Z,1.27
2023-01-12T11:38:38.206Z,0.90
2023-01-12T11:41:08.200Z,1.65
2023-01-12T11:43:53.606Z,1.48
2023-01-12T11:46:44.486Z,1.20
2023-01-12T11:49:11.131Z,1.25
2023-01-12T11:51:37.843Z,1.70
2023-01-12T11:54:05.901Z,1.40
2023-01-12T11:56:45.880Z,1.77
2023-01-12T11:59:49.845Z,2.13
2023-01-12T12:02:55.226Z,2.33
2023-01-12T12:05:42.451Z,3.15
2023-01-12T12:08:17.928Z,3.03
2023-01-12T12:11:02.238Z,3.67
2023-01-12T12:13:33.474Z,3.38
2023-01-12T12:16:09.565Z,3.42
2023-01-12T12:18:45.159Z,3.03
2023-01-12T12:21:37.699Z,4.60
2023-01-12T12:24:07.370Z,3.60
2023-01-12T12:29:15.674Z,3.85
2023-01-12T12:32:01.210Z,2.45
2023-01-12T12:34:54.378Z,2.90
2023-01-12T12:37:22.770Z,2.58
2023-01-12T12:39:54.134Z,2.63
2023-01-12T12:42:30.132Z,2.72
2023-01-12T12:45:06.141Z,3.22
2023-01-12T12:48:06.472Z,3.25
2023-01-12T12:50:39.258Z,2.78
2023-01-12T12:53:12.209Z,3.10
2023-01-12T12:55:38.788Z,2.55
2023-01-12T12:58:23.731Z,2.70
2023-01-12T13:00:50.733Z,2.60
2023-01-12T13:03:39.114Z,2.80
2023-01-12T13:06:15.953Z,2.30
2023-01-12T13:08:42.591Z,2.53
2023-01-12T13:11:09.228Z,2.55
2023-01-12T13:13:36.805Z,2.47
2023-01-12T13:16:18.609Z,1.75
2023-01-12T13:18:51.427Z,2.22
2023-01-12T13:21:27.123Z,2.40
2023-01-12T13:24:19.136Z,2.70
2023-01-12T13:26:46.771Z,2.33
2023-01-12T13:29:28.545Z,3.45
2023-01-12T13:32:20.392Z,2.47
2023-01-12T13:34:47.029Z,2.35
2023-01-12T13:37:19.134Z,2.80
2023-01-12T13:40:00.177Z,2.63
2023-01-12T13:42:26.840Z,3.30
2023-01-12T13:44:53.584Z,3.03
2023-01-12T13:47:24.797Z,2.97
2023-01-12T13:49:53.189Z,3.00
2023-01-12T13:52:27.494Z,3.05
2023-01-12T13:54:54.128Z,1.80
2023-01-12T13:57:22.517Z,2.63
2023-01-12T14:00:03.927Z,2.55
2023-01-12T14:02:31.456Z,2.13
2023-01-12T14:05:07.226Z,2.25
2023-01-12T14:07:43.274Z,2.45
2023-01-12T14:10:19.744Z,1.50
2023-01-12T14:13:12.492Z,2.42
2023-01-12T14:15:39.499Z,2.08
2023-01-12T14:18:11.725Z,1.73
2023-01-12T14:20:52.300Z,2.55
2023-01-12T14:23:29.485Z,2.33
2023-01-12T14:26:15.608Z,2.08
2023-01-12T14:28:43.885Z,2.03
2023-01-12T14:31:22.372Z,1.67
2023-01-12T14:33:53.887Z,1.50
2023-01-12T14:36:23.158Z,1.75
2023-01-12T14:38:49.800Z,2.70
2023-01-12T14:41:22.012Z,1.95
2023-01-12T14:43:48.608Z,1.48
2023-01-12T14:46:35.526Z,1.33
2023-01-12T14:49:03.856Z,1.00
2023-01-12T14:51:34.476Z,1.30
2023-01-12T14:54:14.882Z,0.82
2023-01-12T14:56:42.416Z,0.77
2023-01-12T14:59:22.026Z,0.82
2023-01-12T15:01:48.840Z,0.93
2023-01-12T15:04:20.737Z,1.08
2023-01-12T15:06:47.422Z,0.82
2023-01-12T15:09:28.317Z,0.80
2023-01-12T15:11:54.943Z,0.95
2023-01-12T15:14:24.154Z,1.20
2023-01-12T15:16:51.630Z,0.68
2023-01-12T15:19:18.341Z,0.90
2023-01-12T15:21:44.961Z,0.90
2023-01-12T15:24:28.069Z,0.80
2023-01-12T15:27:05.814Z,1.20
2023-01-12T15:29:33.202Z,1.13
2023-01-12T15:32:00.375Z,1.30
2023-01-12T15:34:27.515Z,1.08
2023-01-12T15:36:54.174Z,1.00
2023-01-12T15:39:20.828Z,1.30
2023-01-12T15:41:47.462Z,1.58
2023-01-12T15:44:14.500Z,1.45
2023-01-12T15:46:41.468Z,1.70
2023-01-12T15:49:08.427Z,1.63
2023-01-12T15:51:35.083Z,2.10
2023-01-12T15:54:02.570Z,1.60
2023-01-12T15:56:29.233Z,2.78
2023-01-12T15:58:55.837Z,1.10
2023-01-12T16:01:22.631Z,2.65
2023-01-12T16:04:15.071Z,1.85
2023-01-12T16:06:35.955Z,1.70
2023-01-12T16:09:02.596Z,1.95
2023-01-12T16:11:29.169Z,1.75
2023-01-12T16:13:55.847Z,1.63
2023-01-12T16:16:22.536Z,1.98
2023-01-12T16:18:49.183Z,1.90
2023-01-12T16:21:16.788Z,1.77
2023-01-12T16:23:43.470Z,1.88
2023-01-12T16:26:10.211Z,2.50
2023-01-12T16:28:36.940Z,2.40
2023-01-12T16:31:07.597Z,2.05
2023-01-12T16:33:34.247Z,2.33
2023-01-12T16:36:00.926Z,1.70
2023-01-12T16:38:30.614Z,1.48
2023-01-12T16:43:24.037Z,1.40
2023-01-12T16:45:53.836Z,1.98
2023-01-12T16:48:20.592Z,1.75
2023-01-12T16:50:47.237Z,1.70
2023-01-12T16:53:13.835Z,1.70
2023-01-12T16:55:40.540Z,1.70
2023-01-12T16:58:17.488Z,1.80
2023-01-12T17:00:44.426Z,2.15
2023-01-12T17:03:11.614Z,1.13
2023-01-12T17:05:39.063Z,1.55
2023-01-12T17:08:05.864Z,1.85
2023-01-12T17:10:33.390Z,2.20
2023-01-12T17:13:02.292Z,1.67
2023-01-12T17:15:29.979Z,2.10
2023-01-12T17:17:56.792Z,2.28
2023-01-12T17:20:23.525Z,2.25
2023-01-12T17:22:50.649Z,3.45
2023-01-12T17:25:17.664Z,2.20
2023-01-12T17:27:44.359Z,1.98
2023-01-12T17:30:11.412Z,2.20
2023-01-12T17:32:40.187Z,2.28
2023-01-12T17:35:07.090Z,2.25
2023-01-12T17:37:33.730Z,2.10
2023-01-12T17:40:00.413Z,2.38
2023-01-12T17:42:27.151Z,2.53
2023-01-12T17:44:53.812Z,3.60
2023-01-12T17:47:20.412Z,3.88
2023-01-12T17:49:47.110Z,3.33
2023-01-12T17:52:14.115Z,2.80
2023-01-12T17:54:40.770Z,3.08
2023-01-12T17:57:07.446Z,3.50
2023-01-12T17:59:34.332Z,2.30
2023-01-12T18:02:04.016Z,3.10
2023-01-12T18:04:31.507Z,2.60
2023-01-12T18:06:58.283Z,2.85
2023-01-12T18:09:25.939Z,2.42
2023-01-12T18:11:52.641Z,2.55
2023-01-12T18:14:19.339Z,2.92
2023-01-12T18:16:46.000Z,3.10
2023-01-12T18:19:12.684Z,2.95
2023-01-12T18:21:39.349Z,3.22
2023-01-12T18:24:07.315Z,3.40
2023-01-12T18:26:34.282Z,3.30
2023-01-12T18:29:01.174Z,3.55
2023-01-12T18:31:29.678Z,3.92
2023-01-12T18:33:56.678Z,3.08
2023-01-12T18:36:24.544Z,2.83
2023-01-12T18:38:51.652Z,3.20
2023-01-12T18:41:18.856Z,2.78
2023-01-12T18:43:45.511Z,2.70
2023-01-12T18:46:12.173Z,3.97
2023-01-12T18:48:39.130Z,2.72
2023-01-12T18:51:05.814Z,3.00
2023-01-12T18:53:32.556Z,4.28
2023-01-12T18:56:01.558Z,4.00
2023-01-12T18:58:29.710Z,4.70
2023-01-12T19:00:57.121Z,3.05
2023-01-12T19:03:23.837Z,3.10
2023-01-12T19:05:50.609Z,4.75
2023-01-12T19:08:17.281Z,3.03
2023-01-12T19:10:43.913Z,3.30
2023-01-12T19:13:10.568Z,2.70
2023-01-12T19:15:37.493Z,3.08
2023-01-12T19:18:04.212Z,2.70
2023-01-12T19:20:30.892Z,2.47
2023-01-12T19:22:57.570Z,3.47
2023-01-12T19:25:24.320Z,3.22
2023-01-12T19:27:50.987Z,3.63
2023-01-12T19:30:17.794Z,3.80
2023-01-12T19:32:44.468Z,3.20
2023-01-12T19:35:11.950Z,4.00
2023-01-12T19:37:41.798Z,3.40
2023-01-12T19:42:37.284Z,2.95
2023-01-12T19:45:04.790Z,2.35
2023-01-12T19:47:31.473Z,2.70
2023-01-12T19:49:58.149Z,2.25
2023-01-12T19:52:25.004Z,2.47
2023-01-12T19:54:51.643Z,2.13
2023-01-12T19:57:18.286Z,2.10
2023-01-12T19:59:45.023Z,1.90
2023-01-12T20:02:12.795Z,1.83
2023-01-12T20:04:39.761Z,1.75
2023-01-12T20:07:09.180Z,1.90
2023-01-12T20:09:36.129Z,1.83
2023-01-12T20:12:04.299Z,1.90
2023-01-12T20:14:31.230Z,1.50
2023-01-12T20:16:58.009Z,2.45
2023-01-12T20:19:24.583Z,1.73
2023-01-12T20:21:51.212Z,1.70
2023-01-12T20:24:17.822Z,1.50
2023-01-12T20:26:44.481Z,1.95
2023-01-12T20:29:11.159Z,1.88
2023-01-12T20:31:37.774Z,2.05
2023-01-12T20:34:04.404Z,1.80
2023-01-12T20:36:31.219Z,2.20
2023-01-12T20:39:01.067Z,1.50
2023-01-12T20:41:30.959Z,1.35
2023-01-12T20:43:57.577Z,2.03
2023-01-12T20:46:25.242Z,1.38
2023-01-12T20:48:51.908Z,1.55
2023-01-12T20:51:18.568Z,2.13
2023-01-12T20:53:45.199Z,1.85
2023-01-12T20:56:11.880Z,1.55
2023-01-12T20:58:38.621Z,1.38
2023-01-12T21:01:10.159Z,1.10
2023-01-12T21:03:36.860Z,1.35
2023-01-12T21:06:09.215Z,1.40
2023-01-12T21:08:37.394Z,1.50
2023-01-12T21:11:04.159Z,2.20
2023-01-12T21:13:30.806Z,1.70
2023-01-12T21:15:59.189Z,1.77
2023-01-12T21:18:25.840Z,1.52
2023-01-12T21:20:52.474Z,1.75
2023-01-12T21:23:19.146Z,1.52
2023-01-12T21:25:45.945Z,1.10
2023-01-12T21:28:12.653Z,1.30
2023-01-12T21:30:39.578Z,1.20
2023-01-12T21:33:06.302Z,1.27
2023-01-12T21:35:33.019Z,1.08
2023-01-12T21:37:59.790Z,0.85
2023-01-12T21:40:52.788Z,0.95
2023-01-12T21:43:19.534Z,0.82
2023-01-12T21:45:47.834Z,1.30
2023-01-12T21:48:15.646Z,1.90
2023-01-12T21:50:45.108Z,1.63
2023-01-12T21:53:16.391Z,1.40
2023-01-12T21:55:43.081Z,1.60
2023-01-12T21:58:09.682Z,1.00
2023-01-12T22:00:36.289Z,1.10
2023-01-12T22:03:02.857Z,1.10
2023-01-12T22:05:29.420Z,1.08
2023-01-12T22:07:56.098Z,1.35
2023-01-12T22:10:22.721Z,1.45
2023-01-12T22:12:56.204Z,1.23
2023-01-12T22:15:23.402Z,1.83
2023-01-12T22:17:50.144Z,2.13
2023-01-12T22:20:17.102Z,1.70
2023-01-12T22:22:44.035Z,1.13
2023-01-12T22:25:11.889Z,1.50
2023-01-12T22:27:38.657Z,2.17
2023-01-12T22:30:05.988Z,2.13
2023-01-12T22:32:32.671Z,1.17
2023-01-12T22:34:59.285Z,1.60
2023-01-12T22:37:26.568Z,1.90
2023-01-12T22:39:53.334Z,1.90
2023-01-12T22:42:20.395Z,2.10
2023-01-12T22:44:47.034Z,2.67
2023-01-12T22:47:13.683Z,2.13
2023-01-12T22:49:40.323Z,1.90
2023-01-12T22:52:06.999Z,3.90
2023-01-12T22:54:36.687Z,2.45
2023-01-12T22:57:03.447Z,2.30
2023-01-12T22:59:30.175Z,2.10
2023-01-12T23:01:56.840Z,1.98
2023-01-12T23:04:23.521Z,2.30
2023-01-12T23:06:50.086Z,1.77
2023-01-12T23:09:16.650Z,2.22
2023-01-12T23:11:43.226Z,2.67
2023-01-12T23:14:09.820Z,2.38
2023-01-12T23:16:36.385Z,2.28
2023-01-12T23:19:03.188Z,2.17
2023-01-12T23:21:29.816Z,2.88
2023-01-12T23:23:57.984Z,2.47
2023-01-12T23:26:26.487Z,3.42
2023-01-12T23:28:54.649Z,2.00
2023-01-12T23:31:22.130Z,2.40
2023-01-12T23:33:48.922Z,2.88
2023-01-12T23:36:17.370Z,2.30
2023-01-12T23:38:44.030Z,2.45
2023-01-12T23:41:18.458Z,2.13
2023-01-12T23:43:45.883Z,1.95
2023-01-12T23:46:12.691Z,2.22
2023-01-12T23:48:40.543Z,1.90
2023-01-12T23:51:07.136Z,3.28
2023-01-12T23:53:33.733Z,2.90
2023-01-12T23:56:10.127Z,2.35
2023-01-12T23:58:36.978Z,2.13
